createdAt,value
2023-02-04T00:00:46.292Z,94.72
2023-02-04T00:01:49.142Z,94.70
2023-02-04T00:02:52.893Z,94.45
2023-02-04T00:03:55.525Z,93.54
2023-02-04T00:04:59.402Z,93.54
2023-02-04T00:06:02.226Z,93.64
2023-02-04T00:07:05.054Z,93.55
2023-02-04T00:08:09.206Z,93.23
2023-02-04T00:09:12.248Z,93.72
2023-02-04T00:10:15.180Z,93.43
2023-02-04T00:11:17.968Z,93.93
2023-02-04T00:12:20.741Z,93.57
2023-02-04T00:13:23.480Z,93.64
2023-02-04T00:14:26.171Z,93.95
2023-02-04T00:15:29.069Z,94.06
2023-02-04T00:16:31.969Z,94.72
2023-02-04T00:17:34.904Z,94.96
2023-02-04T00:18:38.053Z,95.00
2023-02-04T00:19:41.649Z,94.72
2023-02-04T00:20:44.459Z,94.78
2023-02-04T00:21:47.174Z,94.74
2023-02-04T00:22:51.541Z,94.90
2023-02-04T00:23:56.623Z,94.84
2023-02-04T00:24:59.370Z,94.73
2023-02-04T00:26:02.126Z,94.72
2023-02-04T00:27:06.355Z,94.42
2023-02-04T00:28:09.340Z,94.76
2023-02-04T00:29:12.208Z,95.03
2023-02-04T00:30:15.130Z,95.53
2023-02-04T00:31:17.921Z,94.61
2023-02-04T00:32:20.877Z,94.23
2023-02-04T00:33:23.728Z,94.88
2023-02-04T00:34:26.663Z,94.79
2023-02-04T00:35:29.577Z,94.06
2023-02-04T00:36:32.663Z,94.24
2023-02-04T00:37:35.506Z,93.70
2023-02-04T00:38:38.328Z,93.24
2023-02-04T00:39:41.319Z,93.36
2023-02-04T00:40:43.978Z,93.95
2023-02-04T00:41:46.761Z,93.89
2023-02-04T00:42:49.649Z,94.16
2023-02-04T00:43:52.325Z,93.00
2023-02-04T00:44:55.228Z,92.97
2023-02-04T00:45:58.243Z,92.84
2023-02-04T00:47:01.155Z,92.79
2023-02-04T00:48:04.206Z,93.03
2023-02-04T00:49:10.951Z,93.28
2023-02-04T00:50:14.158Z,93.15
2023-02-04T00:51:16.854Z,92.59
2023-02-04T00:52:19.617Z,92.76
2023-02-04T00:53:22.335Z,92.88
2023-02-04T00:54:25.124Z,93.42
2023-02-04T00:55:28.251Z,93.33
2023-02-04T00:56:31.044Z,93.13
2023-02-04T00:57:34.665Z,93.18
2023-02-04T00:58:37.405Z,93.21
2023-02-04T00:59:40.361Z,93.58
2023-02-04T01:00:43.170Z,93.72
2023-02-04T01:01:46.512Z,93.29
2023-02-04T01:02:49.373Z,93.17
2023-02-04T01:03:52.327Z,92.81
2023-02-04T01:04:55.195Z,92.66
2023-02-04T01:05:58.669Z,91.66
2023-02-04T01:07:01.718Z,91.92
2023-02-04T01:08:04.664Z,92.03
2023-02-04T01:09:08.534Z,92.11
2023-02-04T01:10:12.062Z,91.90
2023-02-04T01:11:20.028Z,92.13
2023-02-04T01:12:25.345Z,92.74
2023-02-04T01:13:28.246Z,92.88
2023-02-04T01:14:31.141Z,92.50
2023-02-04T01:15:34.629Z,91.79
2023-02-04T01:16:37.467Z,91.46
2023-02-04T01:17:41.950Z,91.50
2023-02-04T01:18:45.552Z,91.70
2023-02-04T01:19:48.337Z,91.49
2023-02-04T01:20:51.226Z,91.65
2023-02-04T01:21:54.123Z,91.79
2023-02-04T01:22:57.048Z,91.23
2023-02-04T01:23:59.909Z,91.22
2023-02-04T01:25:02.940Z,91.45
2023-02-04T01:26:05.884Z,91.69
2023-02-04T01:27:09.014Z,91.67
2023-02-04T01:28:12.131Z,91.67
2023-02-04T01:29:14.839Z,92.02
2023-02-04T01:30:17.912Z,91.84
2023-02-04T01:31:20.843Z,91.73
2023-02-04T01:32:23.632Z,91.69
2023-02-04T01:33:26.354Z,92.08
2023-02-04T01:34:31.697Z,92.19
2023-02-04T01:35:34.415Z,91.76
2023-02-04T01:36:37.114Z,91.49
2023-02-04T01:37:40.417Z,91.54
2023-02-04T01:38:43.171Z,91.75
2023-02-04T01:39:45.858Z,91.98
2023-02-04T01:40:48.619Z,92.00
2023-02-04T01:41:51.409Z,91.76
2023-02-04T01:42:54.560Z,91.86
2023-02-04T01:43:58.583Z,91.79
2023-02-04T01:45:01.564Z,91.70
2023-02-04T01:46:05.705Z,91.72
2023-02-04T01:47:09.143Z,91.40
2023-02-04T01:48:14.335Z,91.02
2023-02-04T01:49:17.777Z,91.16
2023-02-04T01:50:20.658Z,91.29
2023-02-04T01:51:28.652Z,90.78
2023-02-04T01:52:38.874Z,91.03
2023-02-04T01:53:42.949Z,90.83
2023-02-04T01:54:45.823Z,90.87
2023-02-04T01:55:49.535Z,90.49
2023-02-04T01:56:52.496Z,90.75
2023-02-04T01:57:59.109Z,90.73
2023-02-04T01:59:02.196Z,90.62
2023-02-04T02:00:13.561Z,89.91
2023-02-04T02:01:35.054Z,89.94
2023-02-04T02:02:42.492Z,90.06
2023-02-04T02:03:45.424Z,89.87
2023-02-04T02:04:48.244Z,89.07
2023-02-04T02:05:54.276Z,89.61
2023-02-04T02:07:01.955Z,89.13
2023-02-04T02:08:06.734Z,88.74
2023-02-04T02:09:09.391Z,88.88
2023-02-04T02:10:13.829Z,88.92
2023-02-04T02:11:16.776Z,89.03
2023-02-04T02:12:19.580Z,88.90
2023-02-04T02:13:22.582Z,89.01
2023-02-04T02:14:25.587Z,88.79
2023-02-04T02:15:28.336Z,89.00
2023-02-04T02:16:31.370Z,89.80
2023-02-04T02:17:34.840Z,89.96
2023-02-04T02:18:37.890Z,89.26
2023-02-04T02:19:42.618Z,89.15
2023-02-04T02:20:45.722Z,88.99
2023-02-04T02:21:56.169Z,88.66
2023-02-04T02:23:33.049Z,88.78
2023-02-04T02:24:36.121Z,89.26
2023-02-04T02:25:39.306Z,89.19
2023-02-04T02:26:41.950Z,89.24
2023-02-04T02:27:45.099Z,89.29
2023-02-04T02:28:49.340Z,88.79
2023-02-04T02:29:52.431Z,88.50
2023-02-04T02:30:55.374Z,88.90
2023-02-04T02:31:59.249Z,89.81
2023-02-04T02:33:02.492Z,89.45
2023-02-04T02:34:05.200Z,89.57
2023-02-04T02:35:08.675Z,88.67
2023-02-04T02:36:11.756Z,88.76
2023-02-04T02:37:14.532Z,88.92
2023-02-04T02:38:19.542Z,88.88
2023-02-04T02:39:23.129Z,89.24
2023-02-04T02:40:26.018Z,89.05
2023-02-04T02:41:28.893Z,88.94
2023-02-04T02:42:31.895Z,88.85
2023-02-04T02:43:36.165Z,88.88
2023-02-04T02:44:38.992Z,88.66
2023-02-04T02:45:41.972Z,89.21
2023-02-04T02:46:45.386Z,89.54
2023-02-04T02:47:48.739Z,89.61
2023-02-04T02:48:51.436Z,89.56
2023-02-04T02:49:55.477Z,89.49
2023-02-04T02:50:58.539Z,89.75
2023-02-04T02:52:02.369Z,89.82
2023-02-04T02:53:10.921Z,89.89
2023-02-04T02:54:26.834Z,89.11
2023-02-04T02:55:30.073Z,88.78
2023-02-04T02:56:32.964Z,88.62
2023-02-04T02:57:35.866Z,89.27
2023-02-04T02:58:38.533Z,89.20
2023-02-04T02:59:42.354Z,88.89
2023-02-04T03:00:45.384Z,88.78
2023-02-04T03:01:51.285Z,89.26
2023-02-04T03:02:57.209Z,89.75
2023-02-04T03:04:00.076Z,89.58
2023-02-04T03:05:02.949Z,89.79
2023-02-04T03:06:13.112Z,89.95
2023-02-04T03:07:20.917Z,90.03
2023-02-04T03:08:25.001Z,89.49
2023-02-04T03:09:28.478Z,90.26
2023-02-04T03:10:31.681Z,90.15
2023-02-04T03:11:34.585Z,90.22
2023-02-04T03:12:37.635Z,90.77
2023-02-04T03:13:40.880Z,90.55
2023-02-04T03:14:43.842Z,90.74
2023-02-04T03:15:48.707Z,89.88
2023-02-04T03:16:53.544Z,90.04
2023-02-04T03:17:56.878Z,89.76
2023-02-04T03:19:04.087Z,89.92
2023-02-04T03:20:08.001Z,89.11
2023-02-04T03:21:10.770Z,89.59
2023-02-04T03:22:13.708Z,89.33
2023-02-04T03:23:16.740Z,89.46
2023-02-04T03:24:19.465Z,89.78
2023-02-04T03:25:25.018Z,90.09
2023-02-04T03:26:28.106Z,89.92
2023-02-04T03:27:31.168Z,90.25
2023-02-04T03:28:34.673Z,90.44
2023-02-04T03:29:44.092Z,89.77
2023-02-04T03:30:53.946Z,89.20
2023-02-04T03:32:00.133Z,89.08
2023-02-04T03:33:03.290Z,89.78
2023-02-04T03:34:06.101Z,89.51
2023-02-04T03:35:09.108Z,89.29
2023-02-04T03:36:12.056Z,89.25
2023-02-04T03:37:14.957Z,89.96
2023-02-04T03:38:19.959Z,90.28
2023-02-04T03:39:23.100Z,90.57
2023-02-04T03:40:25.829Z,90.42
2023-02-04T03:41:29.817Z,90.09
2023-02-04T03:42:32.612Z,90.20
2023-02-04T03:43:35.447Z,90.75
2023-02-04T03:44:38.199Z,91.06
2023-02-04T03:45:45.625Z,91.51
2023-02-04T03:46:49.027Z,91.67
2023-02-04T03:47:51.681Z,91.68
2023-02-04T03:48:54.496Z,92.12
2023-02-04T03:49:58.753Z,92.90
2023-02-04T03:51:01.687Z,93.14
2023-02-04T03:52:04.936Z,93.24
2023-02-04T03:53:08.031Z,92.50
2023-02-04T03:54:10.713Z,92.59
2023-02-04T03:55:13.504Z,93.52
2023-02-04T03:56:16.624Z,93.47
2023-02-04T03:57:19.548Z,93.55
2023-02-04T03:58:23.100Z,93.44
2023-02-04T03:59:25.854Z,93.46
2023-02-04T04:00:28.923Z,92.97
2023-02-04T04:01:32.034Z,93.73
2023-02-04T04:02:34.829Z,93.88
2023-02-04T04:03:37.804Z,93.16
2023-02-04T04:04:40.690Z,93.90
2023-02-04T04:05:43.496Z,94.33
2023-02-04T04:06:46.304Z,94.80
2023-02-04T04:07:49.124Z,94.78
2023-02-04T04:08:52.014Z,94.10
2023-02-04T04:09:55.012Z,94.64
2023-02-04T04:11:00.335Z,94.90
2023-02-04T04:12:04.746Z,95.42
2023-02-04T04:13:07.421Z,95.54
2023-02-04T04:14:10.060Z,95.62
2023-02-04T04:15:13.151Z,95.47
2023-02-04T04:16:16.105Z,95.60
2023-02-04T04:17:18.915Z,95.56
2023-02-04T04:18:21.961Z,95.49
2023-02-04T04:19:25.069Z,94.14
2023-02-04T04:20:29.334Z,93.59
2023-02-04T04:21:32.245Z,94.09
2023-02-04T04:22:34.952Z,93.99
2023-02-04T04:23:38.196Z,94.24
2023-02-04T04:24:41.882Z,94.72
2023-02-04T04:25:44.586Z,94.93
2023-02-04T04:26:47.360Z,95.13
2023-02-04T04:27:50.101Z,93.98
2023-02-04T04:28:52.923Z,93.67
2023-02-04T04:29:55.838Z,92.69
2023-02-04T04:30:58.892Z,91.95
2023-02-04T04:32:01.791Z,90.98
2023-02-04T04:33:04.523Z,91.01
2023-02-04T04:34:07.328Z,91.43
2023-02-04T04:35:10.143Z,91.19
2023-02-04T04:36:13.053Z,90.71
2023-02-04T04:37:16.227Z,89.70
2023-02-04T04:38:19.329Z,89.03
2023-02-04T04:39:22.338Z,89.21
2023-02-04T04:40:25.020Z,89.07
2023-02-04T04:41:27.925Z,88.54
2023-02-04T04:42:30.696Z,88.62
2023-02-04T04:43:33.487Z,89.06
2023-02-04T04:44:36.210Z,89.18
2023-02-04T04:45:39.010Z,89.12
2023-02-04T04:46:41.882Z,88.90
2023-02-04T04:47:44.611Z,88.96
2023-02-04T04:48:47.741Z,89.26
2023-02-04T04:49:51.335Z,89.37
2023-02-04T04:50:54.013Z,89.15
2023-02-04T04:51:56.907Z,88.67
2023-02-04T04:52:59.765Z,89.00
2023-02-04T04:54:02.563Z,88.37
2023-02-04T04:55:06.531Z,87.60
2023-02-04T04:56:09.343Z,87.65
2023-02-04T04:57:12.174Z,87.16
2023-02-04T04:58:15.259Z,86.29
2023-02-04T04:59:17.980Z,86.70
2023-02-04T05:00:21.672Z,87.30
2023-02-04T05:01:24.667Z,87.77
2023-02-04T05:02:27.678Z,87.54
2023-02-04T05:03:30.719Z,87.42
2023-02-04T05:04:33.581Z,87.49
2023-02-04T05:05:40.208Z,87.53
2023-02-04T05:06:43.183Z,87.59
2023-02-04T05:07:46.206Z,87.66
2023-02-04T05:08:49.022Z,87.38
2023-02-04T05:09:52.030Z,87.21
2023-02-04T05:10:54.931Z,86.97
2023-02-04T05:11:57.968Z,86.53
2023-02-04T05:13:00.967Z,86.66
2023-02-04T05:14:03.816Z,86.69
2023-02-04T05:15:07.165Z,86.59
2023-02-04T05:16:12.403Z,86.89
2023-02-04T05:17:15.127Z,87.09
2023-02-04T05:18:17.877Z,86.84
2023-02-04T05:19:20.711Z,87.27
2023-02-04T05:20:23.488Z,86.77
2023-02-04T05:21:26.397Z,86.19
2023-02-04T05:22:29.277Z,86.21
2023-02-04T05:23:32.142Z,86.47
2023-02-04T05:24:34.922Z,86.57
2023-02-04T05:25:37.873Z,86.74
2023-02-04T05:26:40.893Z,86.33
2023-02-04T05:27:44.321Z,86.64
2023-02-04T05:28:47.269Z,86.40
2023-02-04T05:29:50.361Z,85.67
2023-02-04T05:30:53.313Z,86.30
2023-02-04T05:31:56.281Z,86.30
2023-02-04T05:32:59.038Z,86.73
2023-02-04T05:34:02.205Z,87.32
2023-02-04T05:35:05.792Z,87.84
2023-02-04T05:36:08.592Z,87.84
2023-02-04T05:37:11.360Z,88.33
2023-02-04T05:38:14.317Z,89.15
2023-02-04T05:39:17.274Z,90.26
2023-02-04T05:40:20.202Z,91.30
2023-02-04T05:41:22.968Z,90.96
2023-02-04T05:42:25.826Z,91.74
2023-02-04T05:43:28.658Z,93.21
2023-02-04T05:44:31.540Z,93.86
2023-02-04T05:45:34.449Z,93.96
2023-02-04T05:46:37.892Z,94.19
2023-02-04T05:47:40.654Z,94.17
2023-02-04T05:48:45.881Z,94.34
2023-02-04T05:49:48.878Z,94.58
2023-02-04T05:50:51.630Z,94.11
2023-02-04T05:51:54.333Z,93.60
2023-02-04T05:52:57.047Z,93.94
2023-02-04T05:53:59.726Z,93.43
2023-02-04T05:55:03.106Z,93.11
2023-02-04T05:56:06.543Z,93.24
2023-02-04T05:57:09.395Z,93.31
2023-02-04T05:58:12.179Z,92.01
2023-02-04T05:59:15.461Z,90.50
2023-02-04T06:00:18.481Z,90.64
2023-02-04T06:01:21.315Z,90.82
2023-02-04T06:02:24.115Z,90.06
2023-02-04T06:03:27.393Z,90.41
2023-02-04T06:04:30.282Z,90.02
2023-02-04T06:05:33.231Z,89.89
2023-02-04T06:06:36.701Z,89.34
2023-02-04T06:07:39.527Z,88.74
2023-02-04T06:08:42.362Z,89.46
2023-02-04T06:09:45.440Z,89.51
2023-02-04T06:10:48.274Z,88.82
2023-02-04T06:11:51.257Z,89.22
2023-02-04T06:12:54.978Z,88.41
2023-02-04T06:13:57.952Z,89.03
2023-02-04T06:15:00.617Z,88.83
2023-02-04T06:16:03.520Z,88.92
2023-02-04T06:17:06.329Z,87.98
2023-02-04T06:18:09.558Z,87.84
2023-02-04T06:19:13.894Z,88.03
2023-02-04T06:20:16.796Z,88.27
2023-02-04T06:21:19.633Z,88.19
2023-02-04T06:22:24.584Z,88.26
2023-02-04T06:23:27.345Z,88.17
2023-02-04T06:24:30.193Z,88.76
2023-02-04T06:25:33.239Z,88.88
2023-02-04T06:26:36.442Z,89.00
2023-02-04T06:27:39.216Z,88.06
2023-02-04T06:28:41.999Z,88.35
2023-02-04T06:29:44.718Z,88.52
2023-02-04T06:30:49.727Z,88.25
2023-02-04T06:31:52.647Z,88.29
2023-02-04T06:32:55.375Z,87.67
2023-02-04T06:33:58.275Z,88.11
2023-02-04T06:35:01.025Z,88.06
2023-02-04T06:36:05.048Z,87.34
2023-02-04T06:37:07.803Z,86.78
2023-02-04T06:38:10.608Z,87.00
2023-02-04T06:39:13.497Z,86.77
2023-02-04T06:40:16.616Z,87.05
2023-02-04T06:41:19.398Z,86.98
2023-02-04T06:42:22.102Z,87.10
2023-02-04T06:43:25.776Z,87.25
2023-02-04T06:44:28.496Z,87.73
2023-02-04T06:45:31.254Z,87.99
2023-02-04T06:46:34.095Z,87.78
2023-02-04T06:47:37.058Z,87.43
2023-02-04T06:48:39.859Z,87.00
2023-02-04T06:49:43.105Z,86.10
2023-02-04T06:50:45.934Z,86.50
2023-02-04T06:51:49.502Z,85.69
2023-02-04T06:52:52.250Z,85.85
2023-02-04T06:53:55.072Z,86.17
2023-02-04T06:54:57.911Z,85.55
2023-02-04T06:56:00.644Z,84.06
2023-02-04T06:57:09.634Z,83.77
2023-02-04T06:58:12.651Z,84.23
2023-02-04T06:59:15.446Z,85.05
2023-02-04T07:00:18.755Z,84.60
2023-02-04T07:01:21.503Z,84.75
2023-02-04T07:02:24.538Z,84.03
2023-02-04T07:03:27.534Z,83.51
2023-02-04T07:04:30.734Z,83.68
2023-02-04T07:05:34.280Z,84.81
2023-02-04T07:06:37.406Z,84.90
2023-02-04T07:07:40.409Z,84.04
2023-02-04T07:08:43.257Z,84.31
2023-02-04T07:09:46.009Z,84.31
2023-02-04T07:10:48.954Z,84.52
2023-02-04T07:11:51.711Z,84.85
2023-02-04T07:12:54.504Z,84.50
2023-02-04T07:13:57.184Z,83.68
2023-02-04T07:15:00.017Z,83.65
2023-02-04T07:16:02.980Z,83.97
2023-02-04T07:17:05.984Z,83.62
2023-02-04T07:18:08.742Z,82.61
2023-02-04T07:19:11.814Z,81.97
2023-02-04T07:20:15.256Z,82.42
2023-02-04T07:21:18.135Z,82.76
2023-02-04T07:22:21.266Z,82.87
2023-02-04T07:23:25.543Z,83.29
2023-02-04T07:24:28.756Z,83.09
2023-02-04T07:25:31.590Z,82.24
2023-02-04T07:26:34.600Z,82.39
2023-02-04T07:27:37.807Z,82.94
2023-02-04T07:28:42.599Z,82.66
2023-02-04T07:29:45.542Z,82.44
2023-02-04T07:30:48.707Z,82.12
2023-02-04T07:31:54.770Z,82.18
2023-02-04T07:32:58.177Z,82.00
2023-02-04T07:34:01.142Z,82.66
2023-02-04T07:35:04.360Z,82.88
2023-02-04T07:36:07.620Z,82.31
2023-02-04T07:37:10.468Z,82.03
2023-02-04T07:38:13.970Z,81.96
2023-02-04T07:39:17.021Z,81.68
2023-02-04T07:40:19.749Z,81.85
2023-02-04T07:41:22.522Z,81.86
2023-02-04T07:42:25.605Z,81.12
2023-02-04T07:43:28.629Z,80.59
2023-02-04T07:44:31.568Z,79.75
2023-02-04T07:45:34.482Z,80.15
2023-02-04T07:46:37.927Z,79.88
2023-02-04T07:47:41.155Z,78.84
2023-02-04T07:48:44.194Z,78.17
2023-02-04T07:49:46.948Z,78.25
2023-02-04T07:50:49.860Z,77.29
2023-02-04T07:51:52.580Z,76.87
2023-02-04T07:52:56.434Z,76.75
2023-02-04T07:53:59.251Z,77.25
2023-02-04T07:55:02.012Z,77.21
2023-02-04T07:56:05.314Z,76.89
2023-02-04T07:57:08.133Z,76.51
2023-02-04T07:58:10.974Z,75.86
2023-02-04T07:59:14.454Z,75.86
2023-02-04T08:00:17.289Z,75.96
2023-02-04T08:01:20.079Z,75.26
2023-02-04T08:02:23.092Z,75.31
2023-02-04T08:03:25.850Z,75.26
2023-02-04T08:04:28.544Z,74.86
2023-02-04T08:05:31.314Z,74.42
2023-02-04T08:06:34.127Z,75.27
2023-02-04T08:07:36.959Z,76.04
2023-02-04T08:08:39.865Z,74.69
2023-02-04T08:09:42.636Z,74.59
2023-02-04T08:10:45.378Z,75.10
2023-02-04T08:11:48.423Z,74.69
2023-02-04T08:12:51.133Z,74.60
2023-02-04T08:13:53.811Z,74.39
2023-02-04T08:14:56.568Z,74.88
2023-02-04T08:15:59.552Z,74.88
2023-02-04T08:17:02.627Z,75.10
2023-02-04T08:18:05.705Z,74.91
2023-02-04T08:19:08.447Z,75.05
2023-02-04T08:20:11.890Z,75.04
2023-02-04T08:21:14.968Z,74.89
2023-02-04T08:22:17.614Z,74.42
2023-02-04T08:23:20.663Z,74.17
2023-02-04T08:24:23.388Z,74.66
2023-02-04T08:25:26.677Z,74.44
2023-02-04T08:26:29.307Z,74.43
2023-02-04T08:27:32.193Z,74.99
2023-02-04T08:28:35.069Z,74.51
2023-02-04T08:29:37.923Z,74.40
2023-02-04T08:30:41.029Z,74.70
2023-02-04T08:31:43.803Z,75.07
2023-02-04T08:32:46.637Z,75.70
2023-02-04T08:33:49.301Z,74.98
2023-02-04T08:34:51.983Z,75.28
2023-02-04T08:35:54.576Z,75.07
2023-02-04T08:36:57.189Z,74.24
2023-02-04T08:37:59.892Z,73.68
2023-02-04T08:39:02.638Z,74.48
2023-02-04T08:40:05.933Z,74.03
2023-02-04T08:41:08.829Z,74.07
2023-02-04T08:42:11.537Z,74.78
2023-02-04T08:43:14.349Z,74.64
2023-02-04T08:44:17.415Z,74.00
2023-02-04T08:45:20.067Z,74.41
2023-02-04T08:46:23.005Z,73.68
2023-02-04T08:47:26.001Z,74.08
2023-02-04T08:48:28.895Z,73.87
2023-02-04T08:49:31.703Z,74.27
2023-02-04T08:50:34.655Z,73.51
2023-02-04T08:51:37.525Z,73.27
2023-02-04T08:52:40.242Z,73.69
2023-02-04T08:53:43.049Z,73.23
2023-02-04T08:54:45.771Z,73.60
2023-02-04T08:55:48.540Z,72.94
2023-02-04T08:56:51.206Z,73.28
2023-02-04T08:57:54.069Z,73.10
2023-02-04T08:58:56.782Z,72.47
2023-02-04T08:59:59.710Z,71.97
2023-02-04T09:01:02.970Z,72.25
2023-02-04T09:02:05.759Z,72.19
2023-02-04T09:03:09.010Z,71.57
2023-02-04T09:04:11.800Z,72.24
2023-02-04T09:05:14.875Z,72.31
2023-02-04T09:06:17.626Z,71.93
2023-02-04T09:07:21.172Z,71.98
2023-02-04T09:08:24.603Z,73.04
2023-02-04T09:09:27.463Z,71.87
2023-02-04T09:10:30.773Z,70.77
2023-02-04T09:11:33.638Z,69.84
2023-02-04T09:12:36.347Z,68.78
2023-02-04T09:13:39.721Z,67.84
2023-02-04T09:14:42.467Z,66.67
2023-02-04T09:15:45.161Z,66.89
2023-02-04T09:16:49.235Z,65.67
2023-02-04T09:18:04.832Z,64.30
2023-02-04T09:19:09.558Z,64.34
2023-02-04T09:20:12.897Z,63.11
2023-02-04T09:21:15.665Z,62.84
2023-02-04T09:22:18.493Z,62.86
2023-02-04T09:23:21.586Z,61.27
2023-02-04T09:24:25.419Z,61.89
2023-02-04T09:25:28.391Z,61.05
2023-02-04T09:26:31.104Z,61.11
2023-02-04T09:27:33.993Z,60.33
2023-02-04T09:28:37.468Z,60.56
2023-02-04T09:29:40.373Z,60.50
2023-02-04T09:30:45.752Z,60.44
2023-02-04T09:31:49.350Z,59.66
2023-02-04T09:32:52.292Z,60.46
2023-02-04T09:33:55.263Z,59.37
2023-02-04T09:34:58.189Z,58.69
2023-02-04T09:36:01.166Z,58.49
2023-02-04T09:37:04.145Z,57.91
2023-02-04T09:38:07.422Z,58.60
2023-02-04T09:39:10.476Z,59.00
2023-02-04T09:40:18.075Z,58.85
2023-02-04T09:41:21.112Z,58.35
2023-02-04T09:42:26.676Z,58.39
2023-02-04T09:43:36.164Z,58.37
2023-02-04T09:44:39.205Z,57.69
2023-02-04T09:45:42.315Z,56.47
2023-02-04T09:46:51.355Z,55.22
2023-02-04T09:47:56.463Z,55.25
2023-02-04T09:49:00.618Z,55.48
2023-02-04T09:50:03.492Z,54.65
2023-02-04T09:51:08.609Z,54.43
2023-02-04T09:52:15.052Z,54.98
2023-02-04T09:53:23.509Z,55.91
2023-02-04T09:54:26.300Z,57.17
2023-02-04T09:55:32.218Z,57.98
2023-02-04T09:56:35.232Z,59.39
2023-02-04T09:57:38.088Z,59.41
2023-02-04T09:58:42.908Z,60.00
2023-02-04T09:59:46.530Z,60.55
2023-02-04T10:01:15.217Z,61.63
2023-02-04T10:02:21.857Z,62.34
2023-02-04T10:03:24.909Z,62.66
2023-02-04T10:04:28.736Z,63.60
2023-02-04T10:05:34.850Z,63.16
2023-02-04T10:06:38.338Z,64.34
2023-02-04T10:07:41.800Z,64.38
2023-02-04T10:08:45.549Z,64.04
2023-02-04T10:09:50.374Z,64.40
2023-02-04T10:10:53.204Z,64.23
2023-02-04T10:11:56.082Z,63.85
2023-02-04T10:13:02.578Z,65.09
2023-02-04T10:14:05.641Z,65.29
2023-02-04T10:15:15.030Z,64.62
2023-02-04T10:16:31.477Z,64.93
2023-02-04T10:17:34.385Z,64.95
2023-02-04T10:18:38.211Z,64.88
2023-02-04T10:19:41.076Z,64.14
2023-02-04T10:20:44.225Z,64.63
2023-02-04T10:21:48.216Z,64.96
2023-02-04T10:22:54.271Z,65.54
2023-02-04T10:23:59.572Z,65.23
2023-02-04T10:25:02.326Z,65.59
2023-02-04T10:26:05.420Z,64.72
2023-02-04T10:27:16.302Z,64.96
2023-02-04T10:28:18.961Z,64.98
2023-02-04T10:29:26.798Z,66.09
2023-02-04T10:30:35.885Z,66.12
2023-02-04T10:31:41.891Z,66.55
2023-02-04T10:32:45.581Z,65.98
2023-02-04T10:33:48.648Z,66.03
2023-02-04T10:34:51.614Z,66.00
2023-02-04T10:35:57.111Z,66.08
2023-02-04T10:37:01.352Z,65.45
2023-02-04T10:38:07.053Z,64.66
2023-02-04T10:39:17.214Z,65.40
2023-02-04T10:40:29.275Z,66.10
2023-02-04T10:41:33.748Z,66.18
2023-02-04T10:42:36.817Z,65.80
2023-02-04T10:43:39.786Z,65.76
2023-02-04T10:44:48.147Z,64.98
2023-02-04T10:46:01.488Z,65.36
2023-02-04T10:47:06.066Z,64.60
2023-02-04T10:48:17.128Z,64.73
2023-02-04T10:49:24.974Z,64.40
2023-02-04T10:50:31.053Z,64.61
2023-02-04T10:51:34.429Z,64.17
2023-02-04T10:52:44.253Z,64.01
2023-02-04T10:54:05.760Z,63.49
2023-02-04T10:55:17.094Z,62.68
2023-02-04T10:56:22.791Z,62.04
2023-02-04T10:57:30.368Z,62.01
2023-02-04T10:58:33.676Z,61.17
2023-02-04T10:59:37.153Z,61.52
2023-02-04T11:00:41.329Z,60.07
2023-02-04T11:01:44.258Z,60.12
2023-02-04T11:02:57.694Z,58.70
2023-02-04T11:04:00.625Z,58.05
2023-02-04T11:05:07.187Z,58.47
2023-02-04T11:06:18.740Z,58.54
2023-02-04T11:07:23.085Z,57.92
2023-02-04T11:08:36.895Z,57.78
2023-02-04T11:09:44.037Z,57.00
2023-02-04T11:10:56.767Z,57.90
2023-02-04T11:12:00.467Z,58.50
2023-02-04T11:13:06.423Z,58.70
2023-02-04T11:14:23.771Z,59.13
2023-02-04T11:15:40.607Z,57.57
2023-02-04T11:16:48.817Z,57.62
2023-02-04T11:18:04.417Z,57.36
2023-02-04T11:19:12.663Z,57.79
2023-02-04T11:20:17.584Z,56.93
2023-02-04T11:21:34.477Z,56.42
2023-02-04T11:22:43.245Z,57.19
2023-02-04T11:23:46.117Z,57.60
2023-02-04T11:24:49.703Z,58.07
2023-02-04T11:26:09.234Z,56.97
2023-02-04T11:27:36.733Z,56.82
2023-02-04T11:28:40.989Z,55.39
2023-02-04T11:29:43.771Z,55.13
2023-02-04T11:30:46.620Z,55.32
2023-02-04T11:31:49.652Z,53.38
2023-02-04T11:33:24.142Z,51.87
2023-02-04T11:34:30.403Z,51.29
2023-02-04T11:35:33.910Z,51.11
2023-02-04T11:37:00.016Z,52.71
2023-02-04T11:38:02.848Z,50.79
2023-02-04T11:39:16.979Z,49.54
2023-02-04T11:40:29.334Z,49.65
2023-02-04T11:41:33.863Z,49.27
2023-02-04T11:42:42.233Z,49.64
2023-02-04T11:43:45.228Z,49.24
2023-02-04T11:45:03.044Z,48.42
2023-02-04T11:46:19.496Z,46.16
2023-02-04T11:47:25.152Z,46.55
2023-02-04T11:48:28.497Z,45.48
2023-02-04T11:49:31.916Z,44.32
2023-02-04T11:50:38.583Z,44.38
2023-02-04T11:51:41.425Z,43.70
2023-02-04T11:52:44.157Z,43.88
2023-02-04T11:53:52.585Z,46.71
2023-02-04T11:54:59.779Z,46.30
2023-02-04T11:56:02.595Z,45.58
2023-02-04T11:57:06.119Z,46.15
2023-02-04T11:58:16.001Z,46.14
2023-02-04T11:59:21.711Z,46.49
2023-02-04T12:00:28.982Z,48.72
2023-02-04T12:01:33.640Z,49.48
2023-02-04T12:03:08.495Z,50.63
2023-02-04T12:04:25.030Z,49.52
2023-02-04T12:05:42.556Z,48.56
2023-02-04T12:06:45.388Z,49.40
2023-02-04T12:07:49.296Z,46.99
2023-02-04T12:08:52.641Z,49.12
2023-02-04T12:09:56.552Z,52.24
2023-02-04T12:11:01.005Z,49.80
2023-02-04T12:12:04.922Z,49.55
2023-02-04T12:13:19.305Z,47.89
2023-02-04T12:14:22.797Z,46.57
2023-02-04T12:15:35.979Z,46.76
2023-02-04T12:16:46.555Z,46.41
2023-02-04T12:18:02.017Z,45.22
2023-02-04T12:19:04.728Z,45.26
2023-02-04T12:20:08.295Z,44.18
2023-02-04T12:21:11.193Z,44.87
2023-02-04T12:22:15.830Z,45.42
2023-02-04T12:23:18.570Z,45.96
2023-02-04T12:24:21.813Z,45.70
2023-02-04T12:25:24.938Z,45.28
2023-02-04T12:26:27.845Z,44.43
2023-02-04T12:27:30.894Z,45.79
2023-02-04T12:28:35.206Z,44.39
2023-02-04T12:29:38.497Z,45.83
2023-02-04T12:30:41.438Z,44.83
2023-02-04T12:31:44.364Z,44.13
2023-02-04T12:32:47.344Z,44.99
2023-02-04T12:33:50.611Z,44.38
2023-02-04T12:34:53.387Z,44.43
2023-02-04T12:35:56.265Z,47.62
2023-02-04T12:36:59.160Z,43.41
2023-02-04T12:38:02.029Z,43.22
2023-02-04T12:39:04.760Z,43.21
2023-02-04T12:40:08.444Z,43.39
2023-02-04T12:41:11.586Z,42.93
2023-02-04T12:42:14.283Z,43.00
2023-02-04T12:43:16.933Z,43.48
2023-02-04T12:44:19.830Z,42.66
2023-02-04T12:45:22.790Z,43.18
2023-02-04T12:46:25.970Z,41.05
2023-02-04T12:47:29.212Z,43.30
2023-02-04T12:48:32.096Z,41.83
2023-02-04T12:49:34.888Z,41.12
2023-02-04T12:50:37.640Z,41.52
2023-02-04T12:51:40.425Z,43.66
2023-02-04T12:52:43.189Z,41.45
2023-02-04T12:53:45.918Z,40.72
2023-02-04T12:54:48.656Z,42.96
2023-02-04T12:55:51.691Z,43.27
2023-02-04T12:56:58.447Z,42.81
2023-02-04T12:58:01.328Z,42.30
2023-02-04T12:59:04.399Z,42.16
2023-02-04T13:00:07.691Z,42.88
2023-02-04T13:01:10.579Z,41.98
2023-02-04T13:02:13.724Z,42.51
2023-02-04T13:03:16.551Z,41.95
2023-02-04T13:04:19.493Z,42.48
2023-02-04T13:05:22.404Z,41.82
2023-02-04T13:06:25.455Z,43.01
2023-02-04T13:07:28.283Z,43.35
2023-02-04T13:08:31.404Z,41.96
2023-02-04T13:09:35.509Z,42.48
2023-02-04T13:10:38.365Z,42.00
2023-02-04T13:11:41.309Z,42.06
2023-02-04T13:12:45.263Z,41.37
2023-02-04T13:13:48.678Z,42.43
2023-02-04T13:14:52.115Z,43.61
2023-02-04T13:15:54.996Z,43.92
2023-02-04T13:16:58.102Z,43.72
2023-02-04T13:18:01.195Z,44.25
2023-02-04T13:19:04.102Z,44.47
2023-02-04T13:20:10.971Z,44.81
2023-02-04T13:21:14.041Z,45.23
2023-02-04T13:22:17.078Z,45.91
2023-02-04T13:23:19.890Z,44.96
2023-02-04T13:24:22.796Z,46.39
2023-02-04T13:25:25.644Z,46.46
2023-02-04T13:26:28.612Z,45.25
2023-02-04T13:27:32.053Z,45.56
2023-02-04T13:28:36.921Z,45.06
2023-02-04T13:29:39.642Z,46.80
2023-02-04T13:30:42.576Z,46.61
2023-02-04T13:31:45.783Z,44.91
2023-02-04T13:32:48.596Z,45.16
2023-02-04T13:33:51.585Z,43.79
2023-02-04T13:34:54.253Z,43.19
2023-02-04T13:35:57.817Z,43.23
2023-02-04T13:37:00.685Z,43.59
2023-02-04T13:38:04.466Z,43.20
2023-02-04T13:39:07.532Z,43.83
2023-02-04T13:40:12.049Z,42.52
2023-02-04T13:41:14.920Z,42.85
2023-02-04T13:42:17.842Z,42.19
2023-02-04T13:43:20.723Z,43.94
2023-02-04T13:44:23.533Z,42.85
2023-02-04T13:45:26.572Z,43.28
2023-02-04T13:46:29.616Z,44.19